Time,TemperatureF,DewpointF,PressureIn,WindDirection,WindDirectionDegrees,WindSpeedMPH,WindSpeedGustMPH,Humidity,HourlyPrecipIn,Conditions,Clouds,dailyrainin,SoftwareType,DateUTC
2013-05-20 00:01:00,61.5,59.2,28.50,NE,34,0.0,0.0,92,0.00,,SCT250,0.00,VWS V14.00,2013-05-20 05:01:00,
2013-05-20 00:06:00,61.7,59.4,28.50,ENE,62,4.0,4.0,92,0.00,,SCT250,0.00,VWS V14.00,2013-05-20 05:06:00,
2013-05-20 00:11:00,61.9,59.5,28.53,East,101,0.0,3.6,92,0.00,,SCT250,0.00,VWS V14.00,2013-05-20 05:11:00,
2013-05-20 00:16:00,61.9,59.5,28.53,ESE,104,2.2,5.4,92,0.00,,SCT250,0.00,VWS V14.00,2013-05-20 05:16:00,
2013-05-20 00:21:00,62.2,59.9,28.53,East,84,0.0,5.8,92,0.00,,SCT250,0.00,VWS V14.00,2013-05-20 05:21:00,
2013-05-20 00:26:00,62.4,60.1,28.53,ENE,65,0.0,5.8,92,0.00,,SCT250,0.00,VWS V14.00,2013-05-20 05:26:00,
2013-05-20 00:31:00,62.4,60.1,28.53,NE,37,3.6,4.9,92,0.00,,SCT250,0.00,VWS V14.00,2013-05-20 05:31:00,
2013-05-20 00:36:00,62.6,60.2,28.53,NE,37,2.7,4.9,92,0.00,,SCT250,0.00,VWS V14.00,2013-05-20 05:36:00,
2013-05-20 00:41:00,62.4,60.1,28.53,ESE,106,0.0,0.0,92,0.00,,SCT250,0.00,VWS V14.00,2013-05-20 05:41:00,
2013-05-20 00:46:00,62.4,60.1,28.53,NE,44,3.6,3.6,92,0.00,,SCT250,0.00,VWS V14.00,2013-05-20 05:46:00,
2013-05-20 00:51:00,62.4,60.1,28.53,NE,44,0.0,0.0,92,0.00,,SCT250,0.00,VWS V14.00,2013-05-20 05:51:00,
2013-05-20 00:56:00,62.2,59.9,28.50,SSE,160,0.0,3.6,92,0.00,,SCT250,0.00,VWS V14.00,2013-05-20 05:56:00,
2013-05-20 01:01:00,62.2,59.9,28.50,SSE,165,0.0,0.0,92,0.00,,OVC120,0.00,VWS V14.00,2013-05-20 06:01:00,
2013-05-20 01:06:00,62.4,60.1,28.50,SE,130,0.0,0.0,92,0.00,,OVC120,0.00,VWS V14.00,2013-05-20 06:06:00,
2013-05-20 01:11:00,62.2,59.9,28.50,ENE,70,0.0,3.1,92,0.00,,OVC120,0.00,VWS V14.00,2013-05-20 06:11:00,
2013-05-20 01:16:00,62.4,60.1,28.50,ENE,73,0.0,5.8,92,0.00,,OVC120,0.00,VWS V14.00,2013-05-20 06:16:00,
2013-05-20 01:21:00,62.2,59.9,28.50,NE,55,3.6,4.5,92,0.00,,OVC120,0.00,VWS V14.00,2013-05-20 06:21:00,
2013-05-20 01:26:00,62.1,59.7,28.50,NE,55,0.0,5.4,92,0.00,,OVC120,0.00,VWS V14.00,2013-05-20 06:26:00,
2013-05-20 01:31:00,61.7,59.4,28.50,NE,55,0.0,0.0,92,0.00,,OVC120,0.00,VWS V14.00,2013-05-20 06:31:00,
2013-05-20 01:36:00,61.7,59.4,28.50,NE,55,0.0,0.0,92,0.00,,OVC120,0.00,VWS V14.00,2013-05-20 06:36:00,
2013-05-20 01:41:00,61.7,59.4,28.47,NE,55,0.0,0.0,92,0.00,,OVC120,0.00,VWS V14.00,2013-05-20 06:41:00,
2013-05-20 01:46:00,61.9,59.5,28.47,NE,55,0.0,0.0,92,0.00,,OVC120,0.00,VWS V14.00,2013-05-20 06:46:00,
2013-05-20 01:51:00,62.1,59.7,28.47,East,80,0.0,0.0,92,0.00,,OVC120,0.00,VWS V14.00,2013-05-20 06:51:00,
2013-05-20 01:56:00,62.1,59.7,28.47,NE,51,0.0,2.7,92,0.00,,OVC120,0.00,VWS V14.00,2013-05-20 06:56:00,
2013-05-20 02:01:00,61.9,59.5,28.47,NE,51,0.0,0.0,92,0.00,,BKN200,0.00,VWS V14.00,2013-05-20 07:01:00,
2013-05-20 02:06:00,62.1,59.7,28.47,ENE,59,2.7,3.6,92,0.00,,BKN200,0.00,VWS V14.00,2013-05-20 07:06:00,
2013-05-20 02:11:00,62.1,59.7,28.47,ENE,63,2.2,3.6,92,0.00,,BKN200,0.00,VWS V14.00,2013-05-20 07:11:00,
2013-05-20 02:16:00,62.2,59.9,28.47,NE,50,0.0,4.9,92,0.00,,BKN200,0.00,VWS V14.00,2013-05-20 07:16:00,
2013-05-20 02:21:00,62.2,59.9,28.47,NNE,23,5.4,5.4,92,0.00,,BKN200,0.00,VWS V14.00,2013-05-20 07:21:00,
2013-05-20 02:26:00,62.1,59.7,28.44,East,79,3.1,5.4,92,0.00,,BKN200,0.00,VWS V14.00,2013-05-20 07:26:00,
2013-05-20 02:31:00,62.1,59.7,28.44,ESE,118,2.7,5.8,92,0.00,,BKN200,0.00,VWS V14.00,2013-05-20 07:31:00,
2013-05-20 02:36:00,62.1,59.7,28.44,SE,143,3.6,5.8,92,0.00,,BKN200,0.00,VWS V14.00,2013-05-20 07:36:00,
2013-05-20 02:41:00,61.9,59.5,28.44,ENE,57,3.1,3.1,92,0.00,,BKN200,0.00,VWS V14.00,2013-05-20 07:41:00,
2013-05-20 02:46:00,62.1,59.7,28.44,ENE,61,0.0,6.3,92,0.00,,BKN200,0.00,VWS V14.00,2013-05-20 07:46:00,
2013-05-20 02:51:00,61.9,59.5,28.44,SE,140,0.0,5.4,92,0.00,,BKN200,0.00,VWS V14.00,2013-05-20 07:51:00,
2013-05-20 02:56:00,61.7,59.4,28.44,SE,138,0.0,5.4,92,0.00,,BKN200,0.00,VWS V14.00,2013-05-20 07:56:00,
2013-05-20 03:01:00,61.9,59.5,28.44,SE,132,0.0,3.6,92,0.00,,BKN200,0.00,VWS V14.00,2013-05-20 08:01:00,
2013-05-20 03:06:00,61.9,59.5,28.44,SE,131,0.0,3.6,92,0.00,,BKN200,0.00,VWS V14.00,2013-05-20 08:06:00,
2013-05-20 03:11:00,62.1,59.7,28.44,SE,139,0.0,3.1,92,0.00,,BKN200,0.00,VWS V14.00,2013-05-20 08:11:00,
2013-05-20 03:16:00,62.1,59.7,28.44,SE,136,2.7,3.6,92,0.00,,BKN200,0.00,VWS V14.00,2013-05-20 08:16:00,
2013-05-20 03:21:00,62.1,59.7,28.44,East,95,0.0,2.7,92,0.00,,BKN200,0.00,VWS V14.00,2013-05-20 08:21:00,
2013-05-20 03:26:00,62.1,59.7,28.44,SE,132,0.0,3.6,92,0.00,,BKN200,0.00,VWS V14.00,2013-05-20 08:26:00,
2013-05-20 03:31:00,62.1,59.7,28.44,ESE,122,0.0,2.2,92,0.00,,BKN200,0.00,VWS V14.00,2013-05-20 08:31:00,
2013-05-20 03:36:00,62.1,59.7,28.44,SE,136,4.0,4.9,92,0.00,,BKN200,0.00,VWS V14.00,2013-05-20 08:36:00,
2013-05-20 03:41:00,61.9,59.5,28.44,SE,136,0.0,4.0,92,0.00,,BKN200,0.00,VWS V14.00,2013-05-20 08:41:00,
2013-05-20 03:46:00,61.9,59.5,28.44,SE,133,3.1,5.8,92,0.00,,BKN200,0.00,VWS V14.00,2013-05-20 08:46:00,
2013-05-20 03:51:00,61.9,59.5,28.44,SE,132,3.1,4.0,92,0.00,,BKN200,0.00,VWS V14.00,2013-05-20 08:51:00,
2013-05-20 03:56:00,61.9,59.5,28.44,SE,133,2.2,4.9,92,0.00,,BKN200,0.00,VWS V14.00,2013-05-20 08:56:00,
2013-05-20 04:01:00,61.9,59.5,28.44,SE,134,2.2,3.6,92,0.00,,FEW140,0.00,VWS V14.00,2013-05-20 09:01:00,
2013-05-20 04:06:00,61.7,59.4,28.44,SE,130,2.2,4.0,92,0.00,,FEW140,0.00,VWS V14.00,2013-05-20 09:06:00,
2013-05-20 04:11:00,61.5,59.2,28.44,SE,131,0.0,4.0,92,0.00,,FEW140,0.00,VWS V14.00,2013-05-20 09:11:00,
2013-05-20 04:16:00,61.3,59.0,28.44,SE,131,0.0,4.0,92,0.00,,FEW140,0.00,VWS V14.00,2013-05-20 09:16:00,
2013-05-20 04:21:00,61.3,59.0,28.44,SE,131,0.0,4.0,92,0.00,,FEW140,0.00,VWS V14.00,2013-05-20 09:21:00,
2013-05-20 04:26:00,61.3,59.0,28.44,SE,131,0.0,4.0,92,0.00,,FEW140,0.00,VWS V14.00,2013-05-20 09:26:00,
2013-05-20 04:31:00,61.3,59.0,28.44,SE,131,2.7,3.1,92,0.00,,FEW140,0.00,VWS V14.00,2013-05-20 09:31:00,
2013-05-20 04:36:00,61.2,58.8,28.44,SE,131,0.0,4.5,92,0.00,,FEW140,0.00,VWS V14.00,2013-05-20 09:36:00,
2013-05-20 04:41:00,61.2,58.8,28.44,SE,131,2.7,2.7,92,0.00,,FEW140,0.00,VWS V14.00,2013-05-20 09:41:00,
2013-05-20 04:46:00,61.2,58.8,28.44,SE,131,3.1,5.8,92,0.00,,FEW140,0.00,VWS V14.00,2013-05-20 09:46:00,
2013-05-20 04:51:00,61.2,58.8,28.44,SE,132,0.0,3.6,92,0.00,,FEW140,0.00,VWS V14.00,2013-05-20 09:51:00,
2013-05-20 04:56:00,61.0,58.6,28.47,SE,132,2.2,4.0,92,0.00,,FEW140,0.00,VWS V14.00,2013-05-20 09:56:00,
2013-05-20 05:01:00,61.2,58.8,28.47,SE,132,3.1,5.8,92,0.00,,SCT250,0.00,VWS V14.00,2013-05-20 10:01:00,
2013-05-20 05:06:00,61.0,58.6,28.47,SE,138,5.4,5.8,92,0.00,,SCT250,0.00,VWS V14.00,2013-05-20 10:06:00,
2013-05-20 05:11:00,61.0,58.6,28.47,SE,136,0.0,3.6,92,0.00,,SCT250,0.00,VWS V14.00,2013-05-20 10:11:00,
2013-05-20 05:16:00,61.0,58.6,28.47,SE,133,2.7,4.9,92,0.00,,SCT250,0.00,VWS V14.00,2013-05-20 10:16:00,
2013-05-20 05:21:00,61.0,58.6,28.47,SE,137,0.0,0.0,92,0.00,,SCT250,0.00,VWS V14.00,2013-05-20 10:21:00,
2013-05-20 05:26:00,61.0,58.6,28.47,SE,137,3.1,5.8,92,0.00,,SCT250,0.00,VWS V14.00,2013-05-20 10:26:00,
2013-05-20 05:31:00,61.0,58.6,28.47,SE,128,3.1,4.9,92,0.00,,SCT250,0.00,VWS V14.00,2013-05-20 10:31:00,
2013-05-20 05:36:00,61.0,58.6,28.47,East,83,3.6,6.3,92,0.00,,SCT250,0.00,VWS V14.00,2013-05-20 10:36:00,
2013-05-20 05:41:00,61.2,58.8,28.50,ESE,123,3.6,7.6,92,0.00,,SCT250,0.00,VWS V14.00,2013-05-20 10:41:00,
2013-05-20 05:46:00,61.2,58.8,28.50,SE,135,4.0,10.1,92,0.00,,SCT250,0.00,VWS V14.00,2013-05-20 10:46:00,
2013-05-20 05:51:00,61.2,58.8,28.50,SE,132,4.9,8.7,92,0.00,,SCT250,0.00,VWS V14.00,2013-05-20 10:51:00,
2013-05-20 05:56:00,61.0,58.6,28.47,ESE,114,5.4,8.7,92,0.00,,SCT250,0.00,VWS V14.00,2013-05-20 10:56:00,
2013-05-20 06:01:00,61.0,58.6,28.47,SE,138,3.6,5.4,92,0.00,,SCT250,0.00,VWS V14.00,2013-05-20 11:01:00,
2013-05-20 06:06:00,61.0,58.6,28.47,SE,139,0.0,6.3,92,0.00,,SCT250,0.00,VWS V14.00,2013-05-20 11:06:00,
2013-05-20 06:11:00,61.2,58.8,28.50,SE,133,0.0,5.8,92,0.00,,SCT250,0.00,VWS V14.00,2013-05-20 11:11:00,
2013-05-20 06:16:00,61.3,59.0,28.50,SE,136,0.0,5.8,92,0.00,,SCT250,0.00,VWS V14.00,2013-05-20 11:16:00,
2013-05-20 06:21:00,61.9,59.5,28.50,SE,129,3.6,3.6,92,0.00,,SCT250,0.00,VWS V14.00,2013-05-20 11:21:00,
2013-05-20 06:26:00,62.8,60.4,28.47,SE,129,0.0,4.0,92,0.00,,SCT250,0.00,VWS V14.00,2013-05-20 11:26:00,
2013-05-20 06:31:00,62.4,60.1,28.47,SE,129,0.0,4.0,92,0.00,,SCT250,0.00,VWS V14.00,2013-05-20 11:31:00,
2013-05-20 06:36:00,63.1,60.8,28.47,SE,129,3.6,4.0,92,0.00,,SCT250,0.00,VWS V14.00,2013-05-20 11:36:00,
2013-05-20 06:41:00,63.9,61.5,28.47,SE,129,0.0,0.0,92,0.00,,SCT250,0.00,VWS V14.00,2013-05-20 11:41:00,
2013-05-20 06:46:00,63.0,60.6,28.47,SE,129,0.0,3.6,92,0.00,,SCT250,0.00,VWS V14.00,2013-05-20 11:46:00,
2013-05-20 06:51:00,63.1,60.5,28.47,SE,129,0.0,0.0,91,0.00,,SCT250,0.00,VWS V14.00,2013-05-20 11:51:00,
2013-05-20 06:56:00,62.2,59.9,28.47,NE,49,0.0,3.1,92,0.00,,SCT250,0.00,VWS V14.00,2013-05-20 11:56:00,
2013-05-20 07:01:00,62.8,60.1,28.47,East,86,0.0,8.1,91,0.00,,BKN300,0.00,VWS V14.00,2013-05-20 12:01:00,
2013-05-20 07:06:00,63.5,60.8,28.47,East,86,0.0,8.1,91,0.00,,BKN300,0.00,VWS V14.00,2013-05-20 12:06:00,
2013-05-20 07:11:00,65.1,62.4,28.50,ESE,118,2.7,3.1,91,0.00,,BKN300,0.00,VWS V14.00,2013-05-20 12:11:00,
2013-05-20 07:16:00,66.6,63.5,28.50,ESE,120,0.0,3.1,90,0.00,,BKN300,0.00,VWS V14.00,2013-05-20 12:16:00,
2013-05-20 07:21:00,67.6,64.6,28.50,ENE,75,0.0,3.1,90,0.00,,BKN300,0.00,VWS V14.00,2013-05-20 12:21:00,
2013-05-20 07:26:00,66.9,63.9,28.50,ENE,68,3.6,4.0,90,0.00,,BKN300,0.00,VWS V14.00,2013-05-20 12:26:00,
2013-05-20 07:31:00,66.7,63.7,28.50,ESE,109,2.7,3.6,90,0.00,,BKN300,0.00,VWS V14.00,2013-05-20 12:31:00,
2013-05-20 07:36:00,67.8,64.8,28.50,SE,131,3.1,4.0,90,0.00,,BKN300,0.00,VWS V14.00,2013-05-20 12:36:00,
2013-05-20 07:41:00,68.0,65.0,28.50,ESE,116,2.2,2.7,90,0.00,,BKN300,0.00,VWS V14.00,2013-05-20 12:41:00,
2013-05-20 07:46:00,67.5,64.8,28.50,East,96,0.0,7.6,91,0.00,,BKN300,0.00,VWS V14.00,2013-05-20 12:46:00,
2013-05-20 07:51:00,70.0,66.3,28.50,ESE,109,2.2,2.2,88,0.00,,BKN300,0.00,VWS V14.00,2013-05-20 12:51:00,
2013-05-20 07:56:00,70.7,59.6,28.50,SE,142,0.0,6.7,68,0.00,,BKN300,0.00,VWS V14.00,2013-05-20 12:56:00,
2013-05-20 08:01:00,70.9,49.7,28.50,SE,140,4.0,7.2,47,0.00,,FEW250,0.00,VWS V14.00,2013-05-20 13:01:00,
2013-05-20 08:06:00,71.8,44.8,28.50,ESE,123,3.6,7.2,38,0.00,,FEW250,0.00,VWS V14.00,2013-05-20 13:06:00,
2013-05-20 08:11:00,72.3,41.6,28.50,SE,132,3.6,5.8,33,0.00,,FEW250,0.00,VWS V14.00,2013-05-20 13:11:00,
2013-05-20 08:16:00,72.3,37.4,28.50,SE,138,7.6,10.5,28,0.00,,FEW250,0.00,VWS V14.00,2013-05-20 13:16:00,
2013-05-20 08:21:00,72.1,38.2,28.50,SE,137,5.4,10.5,29,0.00,,FEW250,0.00,VWS V14.00,2013-05-20 13:21:00,
2013-05-20 08:26:00,72.5,40.2,28.50,SE,130,8.3,10.5,31,0.00,,FEW250,0.00,VWS V14.00,2013-05-20 13:26:00,
2013-05-20 08:31:00,71.2,35.6,28.50,SE,134,6.7,11.0,27,0.00,,FEW250,0.00,VWS V14.00,2013-05-20 13:31:00,
2013-05-20 08:36:00,71.6,37.7,28.50,SE,142,7.6,11.0,29,0.00,,FEW250,0.00,VWS V14.00,2013-05-20 13:36:00,
2013-05-20 08:41:00,72.5,35.7,28.50,SE,135,5.4,12.3,26,0.00,,FEW250,0.00,VWS V14.00,2013-05-20 13:41:00,
2013-05-20 08:46:00,73.0,36.2,28.50,SE,130,3.1,12.3,26,0.00,,FEW250,0.00,VWS V14.00,2013-05-20 13:46:00,
2013-05-20 08:51:00,72.7,33.8,28.50,SE,142,6.7,10.1,24,0.00,,FEW250,0.00,VWS V14.00,2013-05-20 13:51:00,
2013-05-20 08:56:00,73.6,34.6,28.50,ESE,110,3.6,10.5,24,0.00,,FEW250,0.00,VWS V14.00,2013-05-20 13:56:00,
2013-05-20 09:01:00,74.1,34.0,28.50,ESE,118,6.3,10.5,23,0.00,,FEW020,0.00,VWS V14.00,2013-05-20 14:01:00,
2013-05-20 09:06:00,75.4,33.9,28.50,SE,145,5.4,10.5,22,0.00,,FEW020,0.00,VWS V14.00,2013-05-20 14:06:00,
2013-05-20 09:11:00,76.1,33.4,28.50,SE,139,4.0,7.6,21,0.00,,FEW020,0.00,VWS V14.00,2013-05-20 14:11:00,
2013-05-20 09:16:00,75.4,32.8,28.50,SSE,168,6.3,11.9,21,0.00,,FEW020,0.00,VWS V14.00,2013-05-20 14:16:00,
2013-05-20 09:21:00,75.6,32.9,28.50,SE,127,8.7,8.7,21,0.00,,FEW020,0.00,VWS V14.00,2013-05-20 14:21:00,
2013-05-20 09:26:00,75.0,32.5,28.50,SE,140,8.1,13.6,21,0.00,,FEW020,0.00,VWS V14.00,2013-05-20 14:26:00,
2013-05-20 09:31:00,74.1,31.7,28.50,SSE,154,8.1,10.5,21,0.00,,FEW020,0.00,VWS V14.00,2013-05-20 14:31:00,
2013-05-20 09:36:00,75.0,33.6,28.50,SE,146,6.3,11.0,22,0.00,,FEW020,0.00,VWS V14.00,2013-05-20 14:36:00,
2013-05-20 09:41:00,75.7,33.1,28.50,SE,128,5.8,10.5,21,0.00,,FEW020,0.00,VWS V14.00,2013-05-20 14:41:00,
2013-05-20 09:46:00,75.6,32.9,28.50,SE,137,8.7,13.2,21,0.00,,FEW020,0.00,VWS V14.00,2013-05-20 14:46:00,
2013-05-20 09:51:00,76.1,33.4,28.50,SE,138,4.0,10.5,21,0.00,,FEW020,0.00,VWS V14.00,2013-05-20 14:51:00,
2013-05-20 09:56:00,75.0,32.5,28.50,SSE,148,10.5,13.6,21,0.00,,FEW020,0.00,VWS V14.00,2013-05-20 14:56:00,
2013-05-20 10:01:00,74.7,32.2,28.50,SE,130,8.7,12.8,21,0.00,,FEW250,0.00,VWS V14.00,2013-05-20 15:01:00,
2013-05-20 10:06:00,74.5,32.0,28.50,SSE,161,9.6,13.2,21,0.00,,FEW250,0.00,VWS V14.00,2013-05-20 15:06:00,
2013-05-20 10:11:00,74.1,31.7,28.53,SE,130,4.0,8.7,21,0.00,,FEW250,0.00,VWS V14.00,2013-05-20 15:11:00,
2013-05-20 10:16:00,73.9,32.7,28.53,SE,132,8.3,15.0,22,0.00,,FEW250,0.00,VWS V14.00,2013-05-20 15:16:00,
2013-05-20 10:21:00,75.2,32.6,28.53,SE,142,5.4,15.4,21,0.00,,FEW250,0.00,VWS V14.00,2013-05-20 15:21:00,
2013-05-20 10:26:00,75.7,33.1,28.53,SSE,147,5.4,16.8,21,0.00,,FEW250,0.00,VWS V14.00,2013-05-20 15:26:00,
2013-05-20 10:31:00,74.5,32.0,28.53,SE,126,8.7,13.2,21,0.00,,FEW250,0.00,VWS V14.00,2013-05-20 15:31:00,
2013-05-20 10:36:00,74.3,31.9,28.53,SE,144,10.5,13.2,21,0.00,,FEW250,0.00,VWS V14.00,2013-05-20 15:36:00,
2013-05-20 10:41:00,75.7,33.1,28.53,SE,141,8.1,11.0,21,0.00,,FEW250,0.00,VWS V14.00,2013-05-20 15:41:00,
2013-05-20 10:46:00,75.2,32.6,28.53,SE,133,8.7,11.9,21,0.00,,FEW250,0.00,VWS V14.00,2013-05-20 15:46:00,
2013-05-20 10:51:00,75.4,33.9,28.53,SSE,156,4.5,11.0,22,0.00,,FEW250,0.00,VWS V14.00,2013-05-20 15:51:00,
2013-05-20 10:56:00,74.3,33.0,28.53,SSE,153,6.3,16.3,22,0.00,,FEW250,0.00,VWS V14.00,2013-05-20 15:56:00,
2013-05-20 11:01:00,75.6,32.9,28.53,SE,138,5.8,8.7,21,0.00,,FEW250,0.00,VWS V14.00,2013-05-20 16:01:00,
2013-05-20 11:06:00,76.8,34.0,28.53,SE,137,4.0,12.8,21,0.00,,FEW250,0.00,VWS V14.00,2013-05-20 16:06:00,
2013-05-20 11:11:00,78.4,34.1,28.53,SE,133,6.3,6.3,20,0.00,,FEW250,0.00,VWS V14.00,2013-05-20 16:11:00,
2013-05-20 11:16:00,77.2,34.3,28.53,SSE,155,8.3,10.1,21,0.00,,FEW250,0.00,VWS V14.00,2013-05-20 16:16:00,
2013-05-20 11:21:00,77.4,33.2,28.53,SE,129,12.8,15.0,20,0.00,,FEW250,0.00,VWS V14.00,2013-05-20 16:21:00,
2013-05-20 11:26:00,76.1,33.4,28.56,SSE,160,8.1,15.0,21,0.00,,FEW250,0.00,VWS V14.00,2013-05-20 16:26:00,
2013-05-20 11:31:00,76.8,34.0,28.56,SE,138,4.9,10.1,21,0.00,,FEW250,0.00,VWS V14.00,2013-05-20 16:31:00,
2013-05-20 11:36:00,78.6,34.2,28.56,SE,145,5.4,10.1,20,0.00,,FEW250,0.00,VWS V14.00,2013-05-20 16:36:00,
2013-05-20 11:41:00,74.7,33.3,28.56,SSE,163,2.7,4.5,22,0.00,,FEW250,0.00,VWS V14.00,2013-05-20 16:41:00,
2013-05-20 11:46:00,75.4,33.9,28.56,ESE,117,8.3,10.5,22,0.00,,FEW250,0.00,VWS V14.00,2013-05-20 16:46:00,
2013-05-20 11:51:00,76.8,34.0,28.56,ESE,123,8.1,11.0,21,0.00,,FEW250,0.00,VWS V14.00,2013-05-20 16:51:00,
2013-05-20 11:56:00,76.6,33.8,28.56,ESE,122,10.5,11.0,21,0.00,,FEW250,0.00,VWS V14.00,2013-05-20 16:56:00,
2013-05-20 12:01:00,76.5,33.7,28.56,SE,134,4.0,12.3,21,0.00,,BKN250,0.00,VWS V14.00,2013-05-20 17:01:00,
2013-05-20 12:06:00,78.1,35.0,28.56,SE,136,8.1,12.8,21,0.00,,BKN250,0.00,VWS V14.00,2013-05-20 17:06:00,
2013-05-20 12:11:00,78.6,34.2,28.56,SE,140,10.5,10.5,20,0.00,,BKN250,0.00,VWS V14.00,2013-05-20 17:11:00,
2013-05-20 12:16:00,78.6,34.2,28.56,SE,139,4.0,13.2,20,0.00,,BKN250,0.00,VWS V14.00,2013-05-20 17:16:00,
2013-05-20 12:21:00,79.5,35.0,28.56,SE,125,8.1,10.5,20,0.00,,BKN250,0.00,VWS V14.00,2013-05-20 17:21:00,
2013-05-20 12:26:00,79.0,34.5,28.56,ESE,105,10.1,16.8,20,0.00,,BKN250,0.00,VWS V14.00,2013-05-20 17:26:00,
2013-05-20 12:31:00,78.6,34.2,28.56,East,101,6.3,11.0,20,0.00,,BKN250,0.00,VWS V14.00,2013-05-20 17:31:00,
2013-05-20 12:36:00,77.4,33.2,28.56,ESE,118,8.1,12.8,20,0.00,,BKN250,0.00,VWS V14.00,2013-05-20 17:36:00,
2013-05-20 12:41:00,76.8,34.0,28.56,SE,135,5.8,10.5,21,0.00,,BKN250,0.00,VWS V14.00,2013-05-20 17:41:00,
2013-05-20 12:46:00,77.4,34.4,28.56,ESE,113,8.1,10.5,21,0.00,,BKN250,0.00,VWS V14.00,2013-05-20 17:46:00,
2013-05-20 12:51:00,77.7,34.7,28.56,SE,134,8.7,8.7,21,0.00,,BKN250,0.00,VWS V14.00,2013-05-20 17:51:00,
2013-05-20 12:56:00,79.0,34.5,28.56,ESE,102,4.0,9.6,20,0.00,,BKN250,0.00,VWS V14.00,2013-05-20 17:56:00,
2013-05-20 13:01:00,79.0,34.5,28.56,SE,129,10.1,12.3,20,0.00,,FEW250,0.00,VWS V14.00,2013-05-20 18:01:00,
2013-05-20 13:06:00,79.7,35.1,28.56,SSE,147,8.3,12.3,20,0.00,,FEW250,0.00,VWS V14.00,2013-05-20 18:06:00,
2013-05-20 13:11:00,80.1,35.4,28.56,SE,138,5.4,6.3,20,0.00,,FEW250,0.00,VWS V14.00,2013-05-20 18:11:00,
2013-05-20 13:16:00,81.0,34.9,28.56,SE,125,8.1,12.8,19,0.00,,FEW250,0.00,VWS V14.00,2013-05-20 18:16:00,
2013-05-20 13:21:00,81.1,32.2,28.56,SSE,154,8.7,10.1,17,0.00,,FEW250,0.00,VWS V14.00,2013-05-20 18:21:00,
2013-05-20 13:26:00,81.5,32.5,28.56,SE,140,9.6,11.0,17,0.00,,FEW250,0.00,VWS V14.00,2013-05-20 18:26:00,
2013-05-20 13:31:00,80.8,32.0,28.56,SE,131,4.9,8.7,17,0.00,,FEW250,0.00,VWS V14.00,2013-05-20 18:31:00,
2013-05-20 13:36:00,81.7,32.7,28.56,SE,143,12.8,12.8,17,0.00,,FEW250,0.00,VWS V14.00,2013-05-20 18:36:00,
2013-05-20 13:41:00,81.7,32.7,28.56,SE,139,6.3,8.7,17,0.00,,FEW250,0.00,VWS V14.00,2013-05-20 18:41:00,
2013-05-20 13:46:00,80.6,31.8,28.56,SE,134,11.0,13.2,17,0.00,,FEW250,0.00,VWS V14.00,2013-05-20 18:46:00,
2013-05-20 13:51:00,81.1,32.2,28.56,SE,133,6.3,12.3,17,0.00,,FEW250,0.00,VWS V14.00,2013-05-20 18:51:00,
2013-05-20 13:56:00,80.1,31.4,28.56,SE,136,3.1,12.3,17,0.00,,FEW250,0.00,VWS V14.00,2013-05-20 18:56:00,
2013-05-20 14:01:00,79.2,30.6,28.56,SE,136,10.1,10.1,17,0.00,,SCT250,0.00,VWS V14.00,2013-05-20 19:01:00,
2013-05-20 14:06:00,78.6,34.2,28.56,East,92,2.2,10.5,20,0.00,,SCT250,0.00,VWS V14.00,2013-05-20 19:06:00,
2013-05-20 14:11:00,81.1,32.2,28.56,SE,132,11.9,11.9,17,0.00,,SCT250,0.00,VWS V14.00,2013-05-20 19:11:00,
2013-05-20 14:16:00,81.5,32.5,28.56,SE,136,4.0,11.9,17,0.00,,SCT250,0.00,VWS V14.00,2013-05-20 19:16:00,
2013-05-20 14:21:00,83.5,32.6,28.56,SSE,147,10.1,10.1,16,0.00,,SCT250,0.00,VWS V14.00,2013-05-20 19:21:00,
2013-05-20 14:26:00,80.2,31.5,28.53,SE,146,3.6,10.1,17,0.00,,SCT250,0.00,VWS V14.00,2013-05-20 19:26:00,
2013-05-20 14:31:00,79.5,35.0,28.53,SE,135,3.6,5.8,20,0.00,,SCT250,0.00,VWS V14.00,2013-05-20 19:31:00,
2013-05-20 14:36:00,78.1,33.8,28.53,ESE,117,9.2,10.1,20,0.00,,SCT250,0.00,VWS V14.00,2013-05-20 19:36:00,
2013-05-20 14:41:00,77.4,33.2,28.53,SE,126,10.5,10.5,20,0.00,,SCT250,0.00,VWS V14.00,2013-05-20 19:41:00,
2013-05-20 14:46:00,77.7,33.5,28.53,SE,125,3.6,10.5,20,0.00,,SCT250,0.00,VWS V14.00,2013-05-20 19:46:00,
2013-05-20 14:51:00,80.1,35.4,28.53,SE,140,6.3,6.3,20,0.00,,SCT250,0.00,VWS V14.00,2013-05-20 19:51:00,
2013-05-20 14:56:00,80.6,34.6,28.53,SE,135,8.3,11.9,19,0.00,,SCT250,0.00,VWS V14.00,2013-05-20 19:56:00,
2013-05-20 15:01:00,82.2,33.1,28.53,SE,143,6.3,8.3,17,0.00,,BKN300,0.00,VWS V14.00,2013-05-20 20:01:00,
2013-05-20 15:06:00,84.7,33.6,28.53,SSE,151,8.3,12.8,16,0.00,,BKN300,0.00,VWS V14.00,2013-05-20 20:06:00,
2013-05-20 15:11:00,85.1,33.9,28.53,SE,137,4.0,5.8,16,0.00,,BKN300,0.00,VWS V14.00,2013-05-20 20:11:00,
2013-05-20 15:16:00,87.4,35.8,28.53,SE,142,3.1,7.6,16,0.00,,BKN300,0.00,VWS V14.00,2013-05-20 20:16:00,
2013-05-20 15:21:00,85.6,34.3,28.53,SE,127,5.8,5.8,16,0.00,,BKN300,0.00,VWS V14.00,2013-05-20 20:21:00,
2013-05-20 15:26:00,85.6,34.3,28.53,SE,134,5.4,8.3,16,0.00,,BKN300,0.00,VWS V14.00,2013-05-20 20:26:00,
2013-05-20 15:31:00,85.5,34.2,28.53,SE,140,8.7,8.7,16,0.00,,BKN300,0.00,VWS V14.00,2013-05-20 20:31:00,
2013-05-20 15:36:00,86.5,35.1,28.53,SE,128,4.0,8.7,16,0.00,,BKN300,0.00,VWS V14.00,2013-05-20 20:36:00,
2013-05-20 15:41:00,85.3,34.1,28.53,East,98,7.6,8.1,16,0.00,,BKN300,0.00,VWS V14.00,2013-05-20 20:41:00,
2013-05-20 15:46:00,85.5,34.2,28.53,SE,144,5.8,10.1,16,0.00,,BKN300,0.00,VWS V14.00,2013-05-20 20:46:00,
2013-05-20 15:51:00,87.6,35.9,28.53,SE,136,8.3,8.3,16,0.00,,BKN300,0.00,VWS V14.00,2013-05-20 20:51:00,
2013-05-20 15:56:00,87.8,34.5,28.53,SE,134,9.6,9.6,15,0.00,,BKN300,0.00,VWS V14.00,2013-05-20 20:56:00,
2013-05-20 16:01:00,84.2,33.2,28.53,SE,133,5.4,9.6,16,0.00,,SCT250,0.00,VWS V14.00,2013-05-20 21:01:00,
2013-05-20 16:06:00,87.8,34.5,28.53,SE,128,2.7,9.6,15,0.00,,SCT250,0.00,VWS V14.00,2013-05-20 21:06:00,
2013-05-20 16:11:00,91.2,31.6,28.50,SE,136,3.6,3.6,12,0.00,,SCT250,0.00,VWS V14.00,2013-05-20 21:11:00,
2013-05-20 16:16:00,86.2,29.6,28.50,SE,133,2.7,7.6,13,0.00,,SCT250,0.00,VWS V14.00,2013-05-20 21:16:00,
2013-05-20 16:21:00,85.1,33.9,28.50,SE,136,3.1,3.6,16,0.00,,SCT250,0.00,VWS V14.00,2013-05-20 21:21:00,
2013-05-20 16:26:00,85.8,34.5,28.50,SE,134,3.1,7.6,16,0.00,,SCT250,0.00,VWS V14.00,2013-05-20 21:26:00,
2013-05-20 16:31:00,87.3,35.6,28.50,ESE,118,4.9,7.2,16,0.00,,SCT250,0.00,VWS V14.00,2013-05-20 21:31:00,
2013-05-20 16:36:00,88.5,31.5,28.50,SE,142,2.7,7.2,13,0.00,,SCT250,0.00,VWS V14.00,2013-05-20 21:36:00,
2013-05-20 16:41:00,83.7,32.8,28.50,SE,135,3.6,4.9,16,0.00,,SCT250,0.00,VWS V14.00,2013-05-20 21:41:00,
2013-05-20 16:46:00,82.2,33.1,28.50,SE,135,7.6,7.6,17,0.00,,SCT250,0.00,VWS V14.00,2013-05-20 21:46:00,
2013-05-20 16:51:00,81.5,32.5,28.50,SE,141,8.1,8.1,17,0.00,,SCT250,0.00,VWS V14.00,2013-05-20 21:51:00,
2013-05-20 16:56:00,85.8,34.5,28.50,SSE,147,3.6,8.1,16,0.00,,SCT250,0.00,VWS V14.00,2013-05-20 21:56:00,
2013-05-20 17:01:00,88.3,34.9,28.50,East,96,2.7,2.7,15,0.00,,SCT250,0.00,VWS V14.00,2013-05-20 22:01:00,
2013-05-20 17:06:00,88.0,31.0,28.50,SE,129,5.4,6.3,13,0.00,,SCT250,0.00,VWS V14.00,2013-05-20 22:06:00,
2013-05-20 17:11:00,90.0,30.6,28.50,SE,146,5.8,5.8,12,0.00,,SCT250,0.00,VWS V14.00,2013-05-20 22:11:00,
2013-05-20 17:16:00,92.1,32.3,28.50,East,87,2.7,5.8,12,0.00,,SCT250,0.00,VWS V14.00,2013-05-20 22:16:00,
2013-05-20 17:21:00,91.8,32.0,28.50,SE,128,3.1,5.8,12,0.00,,SCT250,0.00,VWS V14.00,2013-05-20 22:21:00,
2013-05-20 17:26:00,91.2,31.6,28.47,SE,128,8.1,9.6,12,0.00,,SCT250,0.00,VWS V14.00,2013-05-20 22:26:00,
2013-05-20 17:31:00,87.4,30.6,28.47,ESE,102,5.8,12.8,13,0.00,,SCT250,0.00,VWS V14.00,2013-05-20 22:31:00,
2013-05-20 17:36:00,82.6,28.6,28.47,SE,138,8.7,12.8,14,0.00,,SCT250,0.00,VWS V14.00,2013-05-20 22:36:00,
2013-05-20 17:41:00,80.8,32.0,28.50,NE,53,2.7,4.0,17,0.00,,SCT250,0.00,VWS V14.00,2013-05-20 22:41:00,
2013-05-20 17:46:00,80.2,31.5,28.50,SE,126,0.0,8.1,17,0.00,,SCT250,0.00,VWS V14.00,2013-05-20 22:46:00,
2013-05-20 17:51:00,79.0,30.5,28.50,SE,135,3.1,5.8,17,0.00,,SCT250,0.00,VWS V14.00,2013-05-20 22:51:00,
2013-05-20 17:56:00,78.8,34.4,28.47,SE,136,4.0,5.8,20,0.00,,SCT250,0.00,VWS V14.00,2013-05-20 22:56:00,
2013-05-20 18:01:00,77.7,33.5,28.47,SE,134,5.8,5.8,20,0.00,,SCT250,0.00,VWS V14.00,2013-05-20 23:01:00,
2013-05-20 18:06:00,76.8,34.0,28.47,SE,127,3.1,8.1,21,0.00,,SCT250,0.00,VWS V14.00,2013-05-20 23:06:00,
2013-05-20 18:11:00,75.9,34.4,28.44,South,180,5.4,7.2,22,0.00,,SCT250,0.00,VWS V14.00,2013-05-20 23:11:00,
2013-05-20 18:16:00,75.6,34.1,28.44,East,95,2.7,7.2,22,0.00,,SCT250,0.00,VWS V14.00,2013-05-20 23:16:00,
2013-05-20 18:21:00,75.2,33.8,28.44,ESE,102,0.0,0.0,22,0.00,,SCT250,0.00,VWS V14.00,2013-05-20 23:21:00,
2013-05-20 18:26:00,74.8,34.6,28.44,East,92,3.6,7.6,23,0.00,,SCT250,0.00,VWS V14.00,2013-05-20 23:26:00,
2013-05-20 18:31:00,74.7,34.4,28.44,ENE,69,0.0,4.0,23,0.00,,SCT250,0.00,VWS V14.00,2013-05-20 23:31:00,
2013-05-20 18:36:00,74.7,34.4,28.44,ENE,71,0.0,5.4,23,0.00,,SCT250,0.00,VWS V14.00,2013-05-20 23:36:00,
2013-05-20 18:41:00,74.8,34.6,28.44,SE,127,2.2,4.9,23,0.00,,SCT250,0.00,VWS V14.00,2013-05-20 23:41:00,
2013-05-20 18:46:00,74.7,34.4,28.44,SE,133,4.0,6.3,23,0.00,,SCT250,0.00,VWS V14.00,2013-05-20 23:46:00,
2013-05-20 18:51:00,73.8,36.8,28.44,WSW,238,6.3,10.5,26,0.00,,SCT250,0.00,VWS V14.00,2013-05-20 23:51:00,
2013-05-20 18:56:00,70.5,40.1,28.44,West,264,8.3,10.5,33,0.00,,SCT250,0.00,VWS V14.00,2013-05-20 23:56:00,
2013-05-20 19:01:00,69.8,41.7,28.44,SE,144,3.6,3.6,36,0.00,,SCT150,0.00,VWS V14.00,2013-05-21 00:01:00,
2013-05-20 19:06:00,70.0,41.8,28.44,SSW,210,3.6,4.9,36,0.00,,SCT150,0.00,VWS V14.00,2013-05-21 00:06:00,
2013-05-20 19:11:00,70.0,41.8,28.44,ENE,78,4.0,4.0,36,0.00,,SCT150,0.00,VWS V14.00,2013-05-21 00:11:00,
2013-05-20 19:16:00,69.6,45.5,28.44,ENE,77,0.0,4.0,42,0.00,,SCT150,0.00,VWS V14.00,2013-05-21 00:16:00,
2013-05-20 19:21:00,67.6,48.4,28.44,SSW,204,0.0,0.0,50,0.00,,SCT150,0.00,VWS V14.00,2013-05-21 00:21:00,
2013-05-20 19:26:00,66.0,52.6,28.50,ESE,112,3.6,6.3,62,0.00,,SCT150,0.00,VWS V14.00,2013-05-21 00:26:00,
2013-05-20 19:31:00,63.5,52.8,28.50,South,182,2.7,4.9,68,0.00,,OVC150,0.00,VWS V14.00,2013-05-21 00:31:00,
2013-05-20 19:36:00,62.6,53.5,28.50,NE,41,3.1,5.8,72,0.00,,OVC150,0.00,VWS V14.00,2013-05-21 00:36:00,
2013-05-20 19:41:00,62.8,55.1,28.44,NE,51,3.6,4.0,76,0.00,,OVC150,0.00,VWS V14.00,2013-05-21 00:41:00,
2013-05-20 19:46:00,63.5,56.9,28.44,SE,136,2.7,4.9,79,0.00,,OVC150,0.00,VWS V14.00,2013-05-21 00:46:00,
2013-05-20 19:51:00,64.2,58.3,28.44,SE,136,0.0,3.1,81,0.00,,OVC150,0.00,VWS V14.00,2013-05-21 00:51:00,
2013-05-20 19:56:00,64.6,58.6,28.47,SE,136,0.0,3.1,81,0.00,,OVC150,0.00,VWS V14.00,2013-05-21 00:56:00,
2013-05-20 20:01:00,64.6,59.0,28.47,SE,136,0.0,3.1,82,0.00,,BKN150,0.00,VWS V14.00,2013-05-21 01:01:00,
2013-05-20 20:06:00,64.6,59.3,28.47,SE,135,3.6,5.4,83,0.00,,BKN150,0.00,VWS V14.00,2013-05-21 01:06:00,
2013-05-20 20:11:00,64.8,59.8,28.47,SE,139,3.1,3.6,84,0.00,,OVC060,0.00,VWS V14.00,2013-05-21 01:11:00,
2013-05-20 20:16:00,64.8,59.8,28.47,ENE,74,4.5,6.3,84,0.00,,OVC060,0.00,VWS V14.00,2013-05-21 01:16:00,
2013-05-20 20:21:00,64.2,59.6,28.47,SE,128,0.0,2.7,85,0.00,,OVC060,0.00,VWS V14.00,2013-05-21 01:21:00,
2013-05-20 20:26:00,63.7,59.1,28.44,SE,128,0.0,2.7,85,0.00,,OVC070,0.00,VWS V14.00,2013-05-21 01:26:00,
2013-05-20 20:31:00,63.3,58.7,28.44,SE,128,0.0,0.0,85,0.00,,OVC070,0.00,VWS V14.00,2013-05-21 01:31:00,
2013-05-20 20:36:00,63.0,58.4,28.44,SE,128,0.0,0.0,85,0.00,,OVC070,0.00,VWS V14.00,2013-05-21 01:36:00,
2013-05-20 20:41:00,62.4,58.2,28.47,SSE,155,4.0,5.4,86,0.00,,OVC070,0.00,VWS V14.00,2013-05-21 01:41:00,
2013-05-20 20:45:00,61.7,57.5,28.47,SE,142,0.0,5.4,86,0.00,,OVC070,0.00,VWS V14.00,2013-05-21 01:45:00,
2013-05-20 20:51:00,61.9,58.0,28.47,ESE,109,3.1,4.9,87,0.00,,OVC070,0.00,VWS V14.00,2013-05-21 01:51:00,
2013-05-20 20:55:00,61.7,57.8,28.47,East,86,11.0,11.0,87,0.00,,OVC070,0.00,VWS V14.00,2013-05-21 01:55:00,
2013-05-20 21:01:00,61.5,57.6,28.47,East,92,3.1,3.6,87,0.00,,OVC100,0.00,VWS V14.00,2013-05-21 02:01:00,
2013-05-20 21:05:00,61.7,57.8,28.47,ENE,68,6.7,6.7,87,0.00,,OVC100,0.00,VWS V14.00,2013-05-21 02:05:00,
2013-05-20 21:10:00,61.7,58.1,28.47,NE,39,0.0,4.0,88,0.00,,OVC100,0.00,VWS V14.00,2013-05-21 02:10:00,
2013-05-20 21:15:00,61.9,58.6,28.47,NE,41,2.2,4.0,89,0.00,,OVC100,0.00,VWS V14.00,2013-05-21 02:15:00,
2013-05-20 21:20:00,61.3,58.1,28.47,ENE,72,0.0,0.0,89,0.00,,OVC100,0.00,VWS V14.00,2013-05-21 02:20:00,
2013-05-20 21:25:00,61.2,57.9,28.44,ENE,72,0.0,4.5,89,0.00,,OVC100,0.00,VWS V14.00,2013-05-21 02:25:00,
2013-05-20 21:30:00,60.6,57.4,28.44,ENE,72,0.0,0.0,89,0.00,,OVC100,0.00,VWS V14.00,2013-05-21 02:30:00,
2013-05-20 21:36:00,60.3,57.0,28.44,ENE,72,0.0,2.2,89,0.00,,OVC150,0.00,VWS V14.00,2013-05-21 02:36:00,
2013-05-20 21:41:00,60.1,56.8,28.44,ENE,72,0.0,0.0,89,0.00,,OVC150,0.00,VWS V14.00,2013-05-21 02:41:00,
2013-05-20 21:46:00,59.9,56.7,28.44,ENE,72,0.0,0.0,89,0.00,,OVC150,0.00,VWS V14.00,2013-05-21 02:46:00,
2013-05-20 21:50:00,59.9,56.7,28.44,ENE,72,0.0,0.0,89,0.00,,OVC150,0.00,VWS V14.00,2013-05-21 02:50:00,
2013-05-20 21:55:00,59.7,56.5,28.44,ENE,72,0.0,0.0,89,0.00,,OVC150,0.00,VWS V14.00,2013-05-21 02:55:00,
2013-05-20 22:00:00,59.9,56.7,28.44,ENE,72,0.0,0.0,89,0.00,,CLR,0.00,VWS V14.00,2013-05-21 03:00:00,
2013-05-20 22:05:00,60.4,56.9,28.44,ENE,72,0.0,0.0,88,0.00,,CLR,0.00,VWS V14.00,2013-05-21 03:05:00,
2013-05-20 22:10:00,60.4,56.9,28.44,ENE,72,0.0,0.0,88,0.00,,CLR,0.00,VWS V14.00,2013-05-21 03:10:00,
2013-05-20 22:15:00,60.1,56.5,28.44,ENE,72,0.0,0.0,88,0.00,,CLR,0.00,VWS V14.00,2013-05-21 03:15:00,
2013-05-20 22:20:00,60.4,56.9,28.44,ENE,72,0.0,0.0,88,0.00,,CLR,0.00,VWS V14.00,2013-05-21 03:20:00,
2013-05-20 22:25:00,60.1,56.5,28.44,ENE,72,0.0,0.0,88,0.00,,CLR,0.00,VWS V14.00,2013-05-21 03:25:00,
2013-05-20 22:30:00,60.4,57.2,28.44,ENE,72,0.0,0.0,89,0.00,,CLR,0.00,VWS V14.00,2013-05-21 03:30:00,
2013-05-20 22:35:00,60.4,57.2,28.44,ENE,72,0.0,0.0,89,0.00,,CLR,0.00,VWS V14.00,2013-05-21 03:35:00,
2013-05-20 22:40:00,60.6,57.4,28.44,ENE,72,0.0,0.0,89,0.00,,CLR,0.00,VWS V14.00,2013-05-21 03:40:00,
2013-05-20 22:45:00,60.6,57.7,28.44,ENE,72,0.0,2.2,90,0.00,,CLR,0.00,VWS V14.00,2013-05-21 03:45:00,
2013-05-20 22:50:00,60.4,57.5,28.44,ENE,72,3.1,3.1,90,0.00,,CLR,0.00,VWS V14.00,2013-05-21 03:50:00,
2013-05-20 22:55:00,60.6,57.7,28.47,ENE,72,0.0,3.1,90,0.00,,CLR,0.00,VWS V14.00,2013-05-21 03:55:00,
2013-05-20 23:00:00,60.6,57.4,28.47,ENE,72,0.0,0.0,89,0.00,,CLR,0.00,VWS V14.00,2013-05-21 04:00:00,
2013-05-20 23:01:00,60.6,57.4,28.47,ENE,72,0.0,0.0,89,0.00,,CLR,0.00,VWS V14.00,2013-05-21 04:01:00,
2013-05-20 23:06:00,60.4,57.5,28.47,ENE,72,0.0,2.7,90,0.00,,CLR,0.00,VWS V14.00,2013-05-21 04:06:00,
2013-05-20 23:11:00,60.4,57.5,28.47,ENE,72,0.0,0.0,90,0.00,,CLR,0.00,VWS V14.00,2013-05-21 04:11:00,
2013-05-20 23:16:00,60.1,56.8,28.47,ENE,72,0.0,0.0,89,0.00,,CLR,0.00,VWS V14.00,2013-05-21 04:16:00,
2013-05-20 23:21:00,60.3,57.0,28.47,ENE,72,0.0,0.0,89,0.00,,CLR,0.00,VWS V14.00,2013-05-21 04:21:00,
2013-05-20 23:26:00,60.1,56.8,28.47,ENE,72,0.0,0.0,89,0.00,,CLR,0.00,VWS V14.00,2013-05-21 04:26:00,
2013-05-20 23:31:00,60.6,57.4,28.47,ENE,72,0.0,0.0,89,0.00,,CLR,0.00,VWS V14.00,2013-05-21 04:31:00,
2013-05-20 23:36:00,61.0,57.7,28.47,ENE,72,0.0,0.0,89,0.00,,CLR,0.00,VWS V14.00,2013-05-21 04:36:00,
2013-05-20 23:41:00,61.0,57.7,28.47,ENE,72,0.0,0.0,89,0.00,,CLR,0.00,VWS V14.00,2013-05-21 04:41:00,
2013-05-20 23:46:00,61.3,58.1,28.47,ENE,72,0.0,0.0,89,0.00,,CLR,0.00,VWS V14.00,2013-05-21 04:46:00,
2013-05-20 23:51:00,61.5,58.6,28.47,ENE,72,0.0,0.0,90,0.00,,CLR,0.00,VWS V14.00,2013-05-21 04:51:00,
2013-05-20 23:56:00,61.2,58.2,28.47,ENE,72,0.0,0.0,90,0.00,,CLR,0.00,VWS V14.00,2013-05-21 04:56:00,